sensor_id;sensor_type;location;lat;lon;timestamp;P1;durP1;ratioP1;P2;durP2;ratioP2
75739;SDS011;64357;51.344;6.550;2023-08-06T00:01:48;8.38;;;2.80;;
75739;SDS011;64357;51.344;6.550;2023-08-06T00:04:13;5.70;;;2.20;;
75739;SDS011;64357;51.344;6.550;2023-08-06T00:06:39;7.90;;;2.35;;
75739;SDS011;64357;51.344;6.550;2023-08-06T00:09:05;6.10;;;2.58;;
75739;SDS011;64357;51.344;6.550;2023-08-06T00:11:30;6.93;;;2.47;;
75739;SDS011;64357;51.344;6.550;2023-08-06T00:13:55;7.38;;;2.38;;
75739;SDS011;64357;51.344;6.550;2023-08-06T00:16:21;6.23;;;2.50;;
75739;SDS011;64357;51.344;6.550;2023-08-06T00:18:46;10.75;;;4.30;;
75739;SDS011;64357;51.344;6.550;2023-08-06T00:21:14;7.72;;;2.42;;
75739;SDS011;64357;51.344;6.550;2023-08-06T00:23:40;7.35;;;2.97;;
75739;SDS011;64357;51.344;6.550;2023-08-06T00:26:06;7.10;;;2.90;;
75739;SDS011;64357;51.344;6.550;2023-08-06T00:28:31;7.78;;;2.53;;
75739;SDS011;64357;51.344;6.550;2023-08-06T00:30:57;7.82;;;2.80;;
75739;SDS011;64357;51.344;6.550;2023-08-06T00:33:22;7.15;;;3.00;;
75739;SDS011;64357;51.344;6.550;2023-08-06T00:35:48;5.88;;;2.63;;
75739;SDS011;64357;51.344;6.550;2023-08-06T00:38:16;4.93;;;2.20;;
75739;SDS011;64357;51.344;6.550;2023-08-06T00:40:41;7.80;;;3.00;;
75739;SDS011;64357;51.344;6.550;2023-08-06T00:43:07;6.68;;;2.63;;
75739;SDS011;64357;51.344;6.550;2023-08-06T00:45:33;6.72;;;2.88;;
75739;SDS011;64357;51.344;6.550;2023-08-06T00:48:00;9.93;;;3.85;;
75739;SDS011;64357;51.344;6.550;2023-08-06T00:50:27;6.40;;;2.83;;
75739;SDS011;64357;51.344;6.550;2023-08-06T00:52:55;7.60;;;3.05;;
75739;SDS011;64357;51.344;6.550;2023-08-06T00:55:23;6.53;;;3.20;;
75739;SDS011;64357;51.344;6.550;2023-08-06T00:57:49;6.53;;;2.80;;
75739;SDS011;64357;51.344;6.550;2023-08-06T01:00:16;7.25;;;2.90;;
75739;SDS011;64357;51.344;6.550;2023-08-06T01:02:41;7.68;;;3.50;;
75739;SDS011;64357;51.344;6.550;2023-08-06T01:05:16;7.18;;;2.63;;
75739;SDS011;64357;51.344;6.550;2023-08-06T01:13:32;9.85;;;3.75;;
75739;SDS011;64357;51.344;6.550;2023-08-06T01:16:06;7.82;;;2.63;;
75739;SDS011;64357;51.344;6.550;2023-08-06T01:18:34;8.95;;;3.50;;
75739;SDS011;64357;51.344;6.550;2023-08-06T01:21:00;6.22;;;2.60;;
75739;SDS011;64357;51.344;6.550;2023-08-06T01:23:25;8.48;;;3.10;;
75739;SDS011;64357;51.344;6.550;2023-08-06T01:28:43;7.65;;;2.88;;
75739;SDS011;64357;51.344;6.550;2023-08-06T01:31:26;6.15;;;2.75;;
75739;SDS011;64357;51.344;6.550;2023-08-06T01:33:58;7.60;;;2.83;;
75739;SDS011;64357;51.344;6.550;2023-08-06T01:36:24;5.40;;;2.30;;
75739;SDS011;64357;51.344;6.550;2023-08-06T01:38:51;5.18;;;2.10;;
75739;SDS011;64357;51.344;6.550;2023-08-06T01:41:20;6.78;;;2.58;;
75739;SDS011;64357;51.344;6.550;2023-08-06T01:43:45;7.13;;;2.30;;
75739;SDS011;64357;51.344;6.550;2023-08-06T01:46:13;5.93;;;2.58;;
75739;SDS011;64357;51.344;6.550;2023-08-06T01:48:39;6.57;;;2.35;;
75739;SDS011;64357;51.344;6.550;2023-08-06T01:51:04;6.70;;;2.47;;
75739;SDS011;64357;51.344;6.550;2023-08-06T01:53:30;6.03;;;2.40;;
75739;SDS011;64357;51.344;6.550;2023-08-06T01:55:56;8.00;;;2.45;;
75739;SDS011;64357;51.344;6.550;2023-08-06T01:58:22;6.57;;;2.50;;
75739;SDS011;64357;51.344;6.550;2023-08-06T02:00:47;5.70;;;2.30;;
75739;SDS011;64357;51.344;6.550;2023-08-06T02:03:13;6.35;;;2.45;;
75739;SDS011;64357;51.344;6.550;2023-08-06T02:05:41;7.82;;;2.60;;
75739;SDS011;64357;51.344;6.550;2023-08-06T02:08:06;6.28;;;2.67;;
75739;SDS011;64357;51.344;6.550;2023-08-06T02:10:32;4.75;;;2.03;;
75739;SDS011;64357;51.344;6.550;2023-08-06T02:12:57;4.87;;;1.80;;
75739;SDS011;64357;51.344;6.550;2023-08-06T02:15:22;6.53;;;2.23;;
75739;SDS011;64357;51.344;6.550;2023-08-06T02:17:48;4.63;;;1.70;;
75739;SDS011;64357;51.344;6.550;2023-08-06T02:20:15;7.97;;;2.30;;
75739;SDS011;64357;51.344;6.550;2023-08-06T02:22:41;3.53;;;1.70;;
75739;SDS011;64357;51.344;6.550;2023-08-06T02:25:06;5.93;;;2.03;;
75739;SDS011;64357;51.344;6.550;2023-08-06T02:27:34;6.45;;;2.10;;
75739;SDS011;64357;51.344;6.550;2023-08-06T02:30:00;5.90;;;1.80;;
75739;SDS011;64357;51.344;6.550;2023-08-06T02:32:25;5.07;;;1.83;;
75739;SDS011;64357;51.344;6.550;2023-08-06T02:34:50;5.77;;;1.87;;
75739;SDS011;64357;51.344;6.550;2023-08-06T02:37:16;5.75;;;1.95;;
75739;SDS011;64357;51.344;6.550;2023-08-06T02:39:41;4.22;;;1.60;;
75739;SDS011;64357;51.344;6.550;2023-08-06T02:42:07;4.93;;;2.00;;
75739;SDS011;64357;51.344;6.550;2023-08-06T02:44:34;5.03;;;2.00;;
75739;SDS011;64357;51.344;6.550;2023-08-06T02:47:00;4.00;;;1.67;;
75739;SDS011;64357;51.344;6.550;2023-08-06T02:49:26;4.68;;;1.50;;
75739;SDS011;64357;51.344;6.550;2023-08-06T02:51:51;4.63;;;1.70;;
75739;SDS011;64357;51.344;6.550;2023-08-06T02:54:19;4.85;;;1.98;;
75739;SDS011;64357;51.344;6.550;2023-08-06T02:56:47;6.60;;;2.22;;
75739;SDS011;64357;51.344;6.550;2023-08-06T02:59:12;5.45;;;1.55;;
75739;SDS011;64357;51.344;6.550;2023-08-06T03:01:38;4.35;;;1.70;;
75739;SDS011;64357;51.344;6.550;2023-08-06T03:04:04;5.50;;;1.98;;
75739;SDS011;64357;51.344;6.550;2023-08-06T03:06:29;5.20;;;1.90;;
75739;SDS011;64357;51.344;6.550;2023-08-06T03:08:54;5.68;;;1.85;;
75739;SDS011;64357;51.344;6.550;2023-08-06T03:11:20;3.90;;;1.60;;
75739;SDS011;64357;51.344;6.550;2023-08-06T03:13:48;3.67;;;1.30;;
75739;SDS011;64357;51.344;6.550;2023-08-06T03:16:16;3.85;;;1.30;;
75739;SDS011;64357;51.344;6.550;2023-08-06T03:18:43;4.88;;;1.60;;
75739;SDS011;64357;51.344;6.550;2023-08-06T03:21:09;3.10;;;1.13;;
75739;SDS011;64357;51.344;6.550;2023-08-06T03:23:34;3.87;;;1.30;;
75739;SDS011;64357;51.344;6.550;2023-08-06T03:26:02;5.50;;;1.65;;
75739;SDS011;64357;51.344;6.550;2023-08-06T03:28:28;4.43;;;1.45;;
75739;SDS011;64357;51.344;6.550;2023-08-06T03:31:02;3.47;;;1.30;;
75739;SDS011;64357;51.344;6.550;2023-08-06T03:33:28;5.57;;;1.50;;
75739;SDS011;64357;51.344;6.550;2023-08-06T03:35:53;3.70;;;1.40;;
75739;SDS011;64357;51.344;6.550;2023-08-06T03:38:21;4.70;;;1.60;;
75739;SDS011;64357;51.344;6.550;2023-08-06T03:40:47;4.80;;;1.52;;
75739;SDS011;64357;51.344;6.550;2023-08-06T03:43:13;5.47;;;1.33;;
75739;SDS011;64357;51.344;6.550;2023-08-06T03:45:40;5.15;;;1.73;;
75739;SDS011;64357;51.344;6.550;2023-08-06T03:48:05;5.57;;;1.70;;
75739;SDS011;64357;51.344;6.550;2023-08-06T03:50:31;5.45;;;1.67;;
75739;SDS011;64357;51.344;6.550;2023-08-06T03:52:56;5.75;;;1.65;;
75739;SDS011;64357;51.344;6.550;2023-08-06T03:55:24;4.10;;;1.83;;
75739;SDS011;64357;51.344;6.550;2023-08-06T03:57:50;4.65;;;1.80;;
75739;SDS011;64357;51.344;6.550;2023-08-06T04:00:15;5.40;;;1.90;;
75739;SDS011;64357;51.344;6.550;2023-08-06T04:02:40;5.10;;;1.77;;
75739;SDS011;64357;51.344;6.550;2023-08-06T04:05:06;3.65;;;1.45;;
75739;SDS011;64357;51.344;6.550;2023-08-06T04:07:34;4.38;;;1.60;;
75739;SDS011;64357;51.344;6.550;2023-08-06T04:10:04;5.25;;;1.55;;
75739;SDS011;64357;51.344;6.550;2023-08-06T04:12:30;8.05;;;2.03;;
75739;SDS011;64357;51.344;6.550;2023-08-06T04:14:59;6.22;;;1.98;;
75739;SDS011;64357;51.344;6.550;2023-08-06T04:17:25;8.55;;;2.70;;
75739;SDS011;64357;51.344;6.550;2023-08-06T04:19:51;5.13;;;1.80;;
75739;SDS011;64357;51.344;6.550;2023-08-06T04:22:18;7.15;;;1.83;;
75739;SDS011;64357;51.344;6.550;2023-08-06T04:24:44;5.50;;;2.08;;
75739;SDS011;64357;51.344;6.550;2023-08-06T04:27:10;6.38;;;2.17;;
75739;SDS011;64357;51.344;6.550;2023-08-06T04:29:38;5.28;;;1.90;;
75739;SDS011;64357;51.344;6.550;2023-08-06T04:32:05;5.40;;;2.22;;
75739;SDS011;64357;51.344;6.550;2023-08-06T04:34:32;8.10;;;2.40;;
75739;SDS011;64357;51.344;6.550;2023-08-06T04:36:57;9.05;;;2.20;;
75739;SDS011;64357;51.344;6.550;2023-08-06T04:39:23;6.20;;;2.15;;
75739;SDS011;64357;51.344;6.550;2023-08-06T04:41:48;6.13;;;2.30;;
75739;SDS011;64357;51.344;6.550;2023-08-06T04:44:16;5.82;;;2.00;;
75739;SDS011;64357;51.344;6.550;2023-08-06T04:46:44;6.07;;;2.28;;
75739;SDS011;64357;51.344;6.550;2023-08-06T04:49:09;7.57;;;2.42;;
75739;SDS011;64357;51.344;6.550;2023-08-06T04:51:37;7.13;;;2.67;;
75739;SDS011;64357;51.344;6.550;2023-08-06T04:54:02;5.95;;;2.63;;
75739;SDS011;64357;51.344;6.550;2023-08-06T04:56:28;8.90;;;2.27;;
75739;SDS011;64357;51.344;6.550;2023-08-06T04:58:53;7.27;;;2.67;;
75739;SDS011;64357;51.344;6.550;2023-08-06T05:01:21;7.73;;;2.70;;
75739;SDS011;64357;51.344;6.550;2023-08-06T05:03:47;6.18;;;2.42;;
75739;SDS011;64357;51.344;6.550;2023-08-06T05:06:14;6.35;;;2.38;;
75739;SDS011;64357;51.344;6.550;2023-08-06T05:08:42;6.05;;;2.50;;
75739;SDS011;64357;51.344;6.550;2023-08-06T05:11:07;6.43;;;2.67;;
75739;SDS011;64357;51.344;6.550;2023-08-06T05:13:35;8.20;;;3.20;;
75739;SDS011;64357;51.344;6.550;2023-08-06T05:16:03;6.80;;;2.50;;
75739;SDS011;64357;51.344;6.550;2023-08-06T05:18:28;6.63;;;2.30;;
75739;SDS011;64357;51.344;6.550;2023-08-06T05:20:55;6.70;;;2.55;;
75739;SDS011;64357;51.344;6.550;2023-08-06T05:23:21;6.22;;;2.42;;
75739;SDS011;64357;51.344;6.550;2023-08-06T05:25:46;7.70;;;2.30;;
75739;SDS011;64357;51.344;6.550;2023-08-06T05:28:14;6.38;;;2.45;;
75739;SDS011;64357;51.344;6.550;2023-08-06T05:30:41;5.20;;;2.00;;
75739;SDS011;64357;51.344;6.550;2023-08-06T05:33:14;5.32;;;1.88;;
75739;SDS011;64357;51.344;6.550;2023-08-06T05:35:40;7.27;;;2.30;;
75739;SDS011;64357;51.344;6.550;2023-08-06T05:38:06;6.50;;;2.58;;
75739;SDS011;64357;51.344;6.550;2023-08-06T05:40:34;7.82;;;2.50;;
75739;SDS011;64357;51.344;6.550;2023-08-06T05:42:59;6.07;;;2.10;;
75739;SDS011;64357;51.344;6.550;2023-08-06T05:45:27;6.32;;;2.30;;
75739;SDS011;64357;51.344;6.550;2023-08-06T05:47:52;5.07;;;2.45;;
75739;SDS011;64357;51.344;6.550;2023-08-06T05:50:20;8.23;;;2.30;;
75739;SDS011;64357;51.344;6.550;2023-08-06T05:52:47;6.20;;;2.17;;
75739;SDS011;64357;51.344;6.550;2023-08-06T05:55:16;6.60;;;2.35;;
75739;SDS011;64357;51.344;6.550;2023-08-06T05:57:42;5.43;;;2.30;;
75739;SDS011;64357;51.344;6.550;2023-08-06T06:00:10;8.65;;;3.17;;
75739;SDS011;64357;51.344;6.550;2023-08-06T06:02:35;5.93;;;2.60;;
75739;SDS011;64357;51.344;6.550;2023-08-06T06:05:01;6.73;;;2.50;;
75739;SDS011;64357;51.344;6.550;2023-08-06T06:07:26;6.38;;;2.65;;
75739;SDS011;64357;51.344;6.550;2023-08-06T06:09:52;6.30;;;2.30;;
75739;SDS011;64357;51.344;6.550;2023-08-06T06:12:17;8.53;;;2.10;;
75739;SDS011;64357;51.344;6.550;2023-08-06T06:14:46;4.65;;;1.80;;
75739;SDS011;64357;51.344;6.550;2023-08-06T06:17:14;4.32;;;1.60;;
75739;SDS011;64357;51.344;6.550;2023-08-06T06:19:39;5.53;;;1.90;;
75739;SDS011;64357;51.344;6.550;2023-08-06T06:22:05;4.53;;;1.70;;
75739;SDS011;64357;51.344;6.550;2023-08-06T06:24:35;5.65;;;2.10;;
75739;SDS011;64357;51.344;6.550;2023-08-06T06:27:00;4.50;;;2.20;;
75739;SDS011;64357;51.344;6.550;2023-08-06T06:29:28;6.00;;;1.90;;
75739;SDS011;64357;51.344;6.550;2023-08-06T06:31:53;9.00;;;3.10;;
75739;SDS011;64357;51.344;6.550;2023-08-06T06:34:21;7.70;;;2.30;;
75739;SDS011;64357;51.344;6.550;2023-08-06T06:36:47;6.63;;;2.03;;
75739;SDS011;64357;51.344;6.550;2023-08-06T06:39:12;5.03;;;1.85;;
75739;SDS011;64357;51.344;6.550;2023-08-06T06:41:38;4.85;;;1.90;;
75739;SDS011;64357;51.344;6.550;2023-08-06T06:44:03;6.13;;;2.00;;
75739;SDS011;64357;51.344;6.550;2023-08-06T06:46:29;8.13;;;2.60;;
75739;SDS011;64357;51.344;6.550;2023-08-06T06:48:56;5.35;;;2.10;;
75739;SDS011;64357;51.344;6.550;2023-08-06T06:51:24;7.15;;;2.00;;
75739;SDS011;64357;51.344;6.550;2023-08-06T06:53:49;5.05;;;1.90;;
75739;SDS011;64357;51.344;6.550;2023-08-06T06:56:15;5.70;;;1.90;;
75739;SDS011;64357;51.344;6.550;2023-08-06T06:58:42;5.15;;;1.80;;
75739;SDS011;64357;51.344;6.550;2023-08-06T07:01:08;6.25;;;2.60;;
75739;SDS011;64357;51.344;6.550;2023-08-06T07:03:35;4.78;;;2.00;;
75739;SDS011;64357;51.344;6.550;2023-08-06T07:06:03;4.97;;;2.30;;
75739;SDS011;64357;51.344;6.550;2023-08-06T07:08:28;7.97;;;2.42;;
75739;SDS011;64357;51.344;6.550;2023-08-06T07:11:03;4.70;;;2.13;;
75739;SDS011;64357;51.344;6.550;2023-08-06T07:13:33;4.97;;;2.20;;
75739;SDS011;64357;51.344;6.550;2023-08-06T07:15:59;4.95;;;2.13;;
75739;SDS011;64357;51.344;6.550;2023-08-06T07:18:25;5.72;;;2.35;;
75739;SDS011;64357;51.344;6.550;2023-08-06T07:20:50;4.35;;;2.15;;
75739;SDS011;64357;51.344;6.550;2023-08-06T07:23:17;7.50;;;2.40;;
75739;SDS011;64357;51.344;6.550;2023-08-06T07:25:45;5.88;;;2.60;;
75739;SDS011;64357;51.344;6.550;2023-08-06T07:28:21;5.82;;;2.55;;
75739;SDS011;64357;51.344;6.550;2023-08-06T07:30:49;8.90;;;3.08;;
75739;SDS011;64357;51.344;6.550;2023-08-06T07:33:17;6.38;;;2.72;;
75739;SDS011;64357;51.344;6.550;2023-08-06T07:35:42;7.00;;;2.80;;
75739;SDS011;64357;51.344;6.550;2023-08-06T07:38:08;5.78;;;2.13;;
75739;SDS011;64357;51.344;6.550;2023-08-06T07:40:36;5.32;;;2.40;;
75739;SDS011;64357;51.344;6.550;2023-08-06T07:43:02;5.45;;;2.28;;
75739;SDS011;64357;51.344;6.550;2023-08-06T07:48:34;5.93;;;2.30;;
75739;SDS011;64357;51.344;6.550;2023-08-06T07:54:06;4.43;;;2.10;;
75739;SDS011;64357;51.344;6.550;2023-08-06T07:56:31;5.15;;;2.45;;
75739;SDS011;64357;51.344;6.550;2023-08-06T07:59:04;4.97;;;2.67;;
75739;SDS011;64357;51.344;6.550;2023-08-06T08:01:29;5.68;;;2.50;;
75739;SDS011;64357;51.344;6.550;2023-08-06T08:03:58;8.43;;;2.53;;
75739;SDS011;64357;51.344;6.550;2023-08-06T08:06:29;5.28;;;2.50;;
75739;SDS011;64357;51.344;6.550;2023-08-06T08:08:55;6.18;;;2.67;;
75739;SDS011;64357;51.344;6.550;2023-08-06T08:11:23;5.70;;;2.80;;
75739;SDS011;64357;51.344;6.550;2023-08-06T08:13:49;4.85;;;1.85;;
75739;SDS011;64357;51.344;6.550;2023-08-06T08:16:20;4.28;;;2.25;;
75739;SDS011;64357;51.344;6.550;2023-08-06T08:18:48;5.43;;;2.77;;
75739;SDS011;64357;51.344;6.550;2023-08-06T08:21:14;5.35;;;2.03;;
75739;SDS011;64357;51.344;6.550;2023-08-06T08:23:42;4.32;;;1.90;;
75739;SDS011;64357;51.344;6.550;2023-08-06T08:26:10;5.80;;;2.00;;
75739;SDS011;64357;51.344;6.550;2023-08-06T08:28:35;6.28;;;1.58;;
75739;SDS011;64357;51.344;6.550;2023-08-06T08:31:01;3.53;;;1.57;;
75739;SDS011;64357;51.344;6.550;2023-08-06T08:33:28;4.70;;;1.80;;
75739;SDS011;64357;51.344;6.550;2023-08-06T08:35:54;3.30;;;1.40;;
75739;SDS011;64357;51.344;6.550;2023-08-06T08:38:22;5.85;;;1.55;;
75739;SDS011;64357;51.344;6.550;2023-08-06T08:40:47;3.30;;;1.53;;
75739;SDS011;64357;51.344;6.550;2023-08-06T08:43:19;2.58;;;1.20;;
75739;SDS011;64357;51.344;6.550;2023-08-06T08:45:57;5.57;;;1.30;;
75739;SDS011;64357;51.344;6.550;2023-08-06T08:48:27;4.65;;;1.42;;
75739;SDS011;64357;51.344;6.550;2023-08-06T08:53:51;4.00;;;1.60;;
75739;SDS011;64357;51.344;6.550;2023-08-06T08:56:18;4.07;;;1.05;;
75739;SDS011;64357;51.344;6.550;2023-08-06T08:59:05;3.22;;;1.00;;
75739;SDS011;64357;51.344;6.550;2023-08-06T09:01:33;4.90;;;1.85;;
75739;SDS011;64357;51.344;6.550;2023-08-06T09:03:59;5.00;;;2.30;;
75739;SDS011;64357;51.344;6.550;2023-08-06T09:06:41;4.68;;;1.80;;
75739;SDS011;64357;51.344;6.550;2023-08-06T09:09:20;7.20;;;2.13;;
75739;SDS011;64357;51.344;6.550;2023-08-06T09:11:53;5.28;;;1.80;;
75739;SDS011;64357;51.344;6.550;2023-08-06T09:14:24;5.80;;;2.33;;
75739;SDS011;64357;51.344;6.550;2023-08-06T09:16:55;6.18;;;2.88;;
75739;SDS011;64357;51.344;6.550;2023-08-06T09:19:22;5.15;;;2.00;;
75739;SDS011;64357;51.344;6.550;2023-08-06T09:21:50;7.07;;;2.40;;
75739;SDS011;64357;51.344;6.550;2023-08-06T09:24:18;6.45;;;2.47;;
75739;SDS011;64357;51.344;6.550;2023-08-06T09:26:50;7.28;;;3.17;;
75739;SDS011;64357;51.344;6.550;2023-08-06T09:29:19;6.72;;;3.28;;
75739;SDS011;64357;51.344;6.550;2023-08-06T09:31:45;5.88;;;2.45;;
75739;SDS011;64357;51.344;6.550;2023-08-06T09:34:24;6.28;;;2.30;;
75739;SDS011;64357;51.344;6.550;2023-08-06T09:36:53;6.25;;;2.78;;
75739;SDS011;64357;51.344;6.550;2023-08-06T09:42:06;5.63;;;2.17;;
75739;SDS011;64357;51.344;6.550;2023-08-06T09:44:32;7.07;;;2.63;;
75739;SDS011;64357;51.344;6.550;2023-08-06T09:47:02;8.70;;;3.08;;
75739;SDS011;64357;51.344;6.550;2023-08-06T09:52:02;6.38;;;2.38;;
75739;SDS011;64357;51.344;6.550;2023-08-06T09:54:37;6.03;;;1.88;;
75739;SDS011;64357;51.344;6.550;2023-08-06T09:57:06;4.45;;;1.98;;
75739;SDS011;64357;51.344;6.550;2023-08-06T09:59:37;2.17;;;1.30;;
75739;SDS011;64357;51.344;6.550;2023-08-06T10:02:11;5.15;;;1.05;;
75739;SDS011;64357;51.344;6.550;2023-08-06T10:04:38;2.97;;;0.93;;
75739;SDS011;64357;51.344;6.550;2023-08-06T10:07:04;3.03;;;1.30;;
75739;SDS011;64357;51.344;6.550;2023-08-06T10:09:29;2.03;;;0.82;;
75739;SDS011;64357;51.344;6.550;2023-08-06T10:11:58;1.20;;;0.70;;
75739;SDS011;64357;51.344;6.550;2023-08-06T10:14:36;2.58;;;1.27;;
75739;SDS011;64357;51.344;6.550;2023-08-06T10:17:28;2.55;;;1.25;;
75739;SDS011;64357;51.344;6.550;2023-08-06T10:20:05;2.50;;;1.10;;
75739;SDS011;64357;51.344;6.550;2023-08-06T10:22:42;3.53;;;1.13;;
75739;SDS011;64357;51.344;6.550;2023-08-06T10:25:57;3.08;;;0.90;;
75739;SDS011;64357;51.344;6.550;2023-08-06T10:28:33;2.78;;;1.30;;
75739;SDS011;64357;51.344;6.550;2023-08-06T10:31:17;1.77;;;0.85;;
75739;SDS011;64357;51.344;6.550;2023-08-06T10:34:02;2.13;;;0.85;;
75739;SDS011;64357;51.344;6.550;2023-08-06T10:36:33;2.17;;;1.17;;
75739;SDS011;64357;51.344;6.550;2023-08-06T10:38:58;2.60;;;1.38;;
75739;SDS011;64357;51.344;6.550;2023-08-06T10:41:27;3.30;;;1.10;;
75739;SDS011;64357;51.344;6.550;2023-08-06T10:44:44;3.30;;;1.48;;
75739;SDS011;64357;51.344;6.550;2023-08-06T10:47:16;4.57;;;1.45;;
75739;SDS011;64357;51.344;6.550;2023-08-06T10:49:57;3.45;;;1.52;;
75739;SDS011;64357;51.344;6.550;2023-08-06T10:52:25;5.07;;;1.70;;
75739;SDS011;64357;51.344;6.550;2023-08-06T10:54:50;3.50;;;1.58;;
75739;SDS011;64357;51.344;6.550;2023-08-06T10:57:16;2.80;;;1.23;;
75739;SDS011;64357;51.344;6.550;2023-08-06T10:59:44;5.47;;;2.20;;
75739;SDS011;64357;51.344;6.550;2023-08-06T11:02:24;5.70;;;2.47;;
75739;SDS011;64357;51.344;6.550;2023-08-06T11:04:56;5.78;;;2.40;;
75739;SDS011;64357;51.344;6.550;2023-08-06T11:07:21;7.13;;;3.10;;
75739;SDS011;64357;51.344;6.550;2023-08-06T11:10:00;8.80;;;2.92;;
75739;SDS011;64357;51.344;6.550;2023-08-06T11:12:26;6.70;;;3.13;;
75739;SDS011;64357;51.344;6.550;2023-08-06T11:14:53;6.25;;;3.03;;
75739;SDS011;64357;51.344;6.550;2023-08-06T11:17:21;6.68;;;2.55;;
75739;SDS011;64357;51.344;6.550;2023-08-06T11:19:46;6.88;;;2.28;;
75739;SDS011;64357;51.344;6.550;2023-08-06T11:22:12;4.63;;;1.98;;
75739;SDS011;64357;51.344;6.550;2023-08-06T11:24:39;3.45;;;1.63;;
75739;SDS011;64357;51.344;6.550;2023-08-06T11:27:14;4.07;;;1.98;;
75739;SDS011;64357;51.344;6.550;2023-08-06T11:29:41;3.22;;;1.50;;
75739;SDS011;64357;51.344;6.550;2023-08-06T11:32:10;4.95;;;1.73;;
75739;SDS011;64357;51.344;6.550;2023-08-06T11:34:45;4.20;;;1.60;;
75739;SDS011;64357;51.344;6.550;2023-08-06T11:37:13;3.38;;;1.35;;
75739;SDS011;64357;51.344;6.550;2023-08-06T11:39:45;3.40;;;1.60;;
75739;SDS011;64357;51.344;6.550;2023-08-06T11:42:14;3.90;;;1.85;;
75739;SDS011;64357;51.344;6.550;2023-08-06T11:44:44;3.60;;;1.73;;
75739;SDS011;64357;51.344;6.550;2023-08-06T11:47:12;4.63;;;1.95;;
75739;SDS011;64357;51.344;6.550;2023-08-06T11:52:24;5.30;;;1.75;;
75739;SDS011;64357;51.344;6.550;2023-08-06T11:55:05;3.85;;;1.52;;
75739;SDS011;64357;51.344;6.550;2023-08-06T11:57:33;2.63;;;1.25;;
75739;SDS011;64357;51.344;6.550;2023-08-06T12:00:04;5.80;;;2.00;;
75739;SDS011;64357;51.344;6.550;2023-08-06T12:02:31;3.85;;;1.27;;
75739;SDS011;64357;51.344;6.550;2023-08-06T12:07:51;3.83;;;1.88;;
75739;SDS011;64357;51.344;6.550;2023-08-06T12:10:27;3.45;;;1.55;;
75739;SDS011;64357;51.344;6.550;2023-08-06T12:12:53;4.32;;;1.90;;
75739;SDS011;64357;51.344;6.550;2023-08-06T12:15:20;5.15;;;1.60;;
75739;SDS011;64357;51.344;6.550;2023-08-06T12:17:46;4.78;;;1.90;;
75739;SDS011;64357;51.344;6.550;2023-08-06T12:20:13;4.88;;;2.30;;
75739;SDS011;64357;51.344;6.550;2023-08-06T12:22:41;5.75;;;1.70;;
75739;SDS011;64357;51.344;6.550;2023-08-06T12:27:43;6.75;;;2.28;;
75739;SDS011;64357;51.344;6.550;2023-08-06T12:30:10;4.88;;;2.10;;
75739;SDS011;64357;51.344;6.550;2023-08-06T12:32:37;4.72;;;2.05;;
75739;SDS011;64357;51.344;6.550;2023-08-06T12:35:05;5.35;;;2.08;;
75739;SDS011;64357;51.344;6.550;2023-08-06T12:37:32;7.60;;;2.90;;
75739;SDS011;64357;51.344;6.550;2023-08-06T12:39:58;5.18;;;1.58;;
75739;SDS011;64357;51.344;6.550;2023-08-06T12:42:23;3.67;;;1.42;;
75739;SDS011;64357;51.344;6.550;2023-08-06T12:44:51;6.40;;;2.60;;
75739;SDS011;64357;51.344;6.550;2023-08-06T12:47:17;4.77;;;1.70;;
75739;SDS011;64357;51.344;6.550;2023-08-06T12:49:43;6.47;;;2.45;;
75739;SDS011;64357;51.344;6.550;2023-08-06T12:52:11;9.15;;;2.38;;
75739;SDS011;64357;51.344;6.550;2023-08-06T12:54:37;6.18;;;2.30;;
75739;SDS011;64357;51.344;6.550;2023-08-06T12:57:08;7.07;;;2.45;;
75739;SDS011;64357;51.344;6.550;2023-08-06T12:59:36;6.32;;;1.85;;
75739;SDS011;64357;51.344;6.550;2023-08-06T13:02:01;5.53;;;1.88;;
75739;SDS011;64357;51.344;6.550;2023-08-06T13:04:27;4.60;;;2.05;;
75739;SDS011;64357;51.344;6.550;2023-08-06T13:06:57;5.72;;;1.90;;
75739;SDS011;64357;51.344;6.550;2023-08-06T13:09:23;6.28;;;2.17;;
75739;SDS011;64357;51.344;6.550;2023-08-06T13:11:52;4.80;;;1.45;;
75739;SDS011;64357;51.344;6.550;2023-08-06T13:14:18;4.95;;;1.80;;
75739;SDS011;64357;51.344;6.550;2023-08-06T13:16:43;5.47;;;1.57;;
75739;SDS011;64357;51.344;6.550;2023-08-06T13:19:10;4.00;;;1.52;;
75739;SDS011;64357;51.344;6.550;2023-08-06T13:24:06;6.28;;;1.55;;
75739;SDS011;64357;51.344;6.550;2023-08-06T13:26:32;4.47;;;1.92;;
75739;SDS011;64357;51.344;6.550;2023-08-06T13:29:02;5.10;;;1.75;;
75739;SDS011;64357;51.344;6.550;2023-08-06T13:31:28;4.13;;;1.58;;
75739;SDS011;64357;51.344;6.550;2023-08-06T13:33:56;4.78;;;1.60;;
75739;SDS011;64357;51.344;6.550;2023-08-06T13:36:28;3.42;;;1.23;;
75739;SDS011;64357;51.344;6.550;2023-08-06T13:38:56;5.10;;;1.67;;
75739;SDS011;64357;51.344;6.550;2023-08-06T13:41:22;3.33;;;1.40;;
75739;SDS011;64357;51.344;6.550;2023-08-06T13:43:48;4.60;;;1.40;;
75739;SDS011;64357;51.344;6.550;2023-08-06T13:46:14;3.55;;;0.93;;
75739;SDS011;64357;51.344;6.550;2023-08-06T13:48:45;4.60;;;1.33;;
75739;SDS011;64357;51.344;6.550;2023-08-06T13:51:14;5.40;;;1.48;;
75739;SDS011;64357;51.344;6.550;2023-08-06T13:53:42;7.25;;;1.92;;
75739;SDS011;64357;51.344;6.550;2023-08-06T13:56:08;5.75;;;2.00;;
75739;SDS011;64357;51.344;6.550;2023-08-06T13:58:42;5.22;;;2.08;;
75739;SDS011;64357;51.344;6.550;2023-08-06T14:01:09;5.10;;;1.80;;
75739;SDS011;64357;51.344;6.550;2023-08-06T14:03:34;5.72;;;1.58;;
75739;SDS011;64357;51.344;6.550;2023-08-06T14:06:00;5.40;;;1.50;;
75739;SDS011;64357;51.344;6.550;2023-08-06T14:08:25;5.60;;;1.70;;
75739;SDS011;64357;51.344;6.550;2023-08-06T14:10:54;6.57;;;2.08;;
75739;SDS011;64357;51.344;6.550;2023-08-06T14:13:19;3.85;;;1.63;;
75739;SDS011;64357;51.344;6.550;2023-08-06T14:15:45;6.10;;;1.85;;
75739;SDS011;64357;51.344;6.550;2023-08-06T14:18:12;5.70;;;1.70;;
75739;SDS011;64357;51.344;6.550;2023-08-06T14:20:43;5.30;;;1.40;;
75739;SDS011;64357;51.344;6.550;2023-08-06T14:23:09;5.05;;;1.50;;
75739;SDS011;64357;51.344;6.550;2023-08-06T14:25:34;5.32;;;1.65;;
75739;SDS011;64357;51.344;6.550;2023-08-06T14:28:00;6.70;;;2.10;;
75739;SDS011;64357;51.344;6.550;2023-08-06T14:30:26;7.20;;;2.15;;
75739;SDS011;64357;51.344;6.550;2023-08-06T14:32:51;5.53;;;1.80;;
75739;SDS011;64357;51.344;6.550;2023-08-06T14:35:19;5.63;;;1.80;;
75739;SDS011;64357;51.344;6.550;2023-08-06T14:37:44;4.63;;;1.50;;
75739;SDS011;64357;51.344;6.550;2023-08-06T14:40:11;6.28;;;1.80;;
75739;SDS011;64357;51.344;6.550;2023-08-06T14:42:36;3.53;;;1.13;;
75739;SDS011;64357;51.344;6.550;2023-08-06T14:45:02;5.38;;;1.67;;
75739;SDS011;64357;51.344;6.550;2023-08-06T14:47:28;4.80;;;1.45;;
75739;SDS011;64357;51.344;6.550;2023-08-06T14:49:56;4.28;;;1.50;;
75739;SDS011;64357;51.344;6.550;2023-08-06T14:52:22;3.60;;;1.30;;
75739;SDS011;64357;51.344;6.550;2023-08-06T14:54:47;4.82;;;1.55;;
75739;SDS011;64357;51.344;6.550;2023-08-06T14:57:13;3.93;;;1.50;;
75739;SDS011;64357;51.344;6.550;2023-08-06T14:59:39;3.35;;;1.33;;
75739;SDS011;64357;51.344;6.550;2023-08-06T15:02:05;5.03;;;1.63;;
75739;SDS011;64357;51.344;6.550;2023-08-06T15:04:32;5.38;;;1.58;;
75739;SDS011;64357;51.344;6.550;2023-08-06T15:06:58;2.90;;;1.30;;
75739;SDS011;64357;51.344;6.550;2023-08-06T15:09:23;8.70;;;2.10;;
75739;SDS011;64357;51.344;6.550;2023-08-06T15:11:51;4.65;;;1.20;;
75739;SDS011;64357;51.344;6.550;2023-08-06T15:14:16;4.75;;;1.60;;
75739;SDS011;64357;51.344;6.550;2023-08-06T15:16:42;1.75;;;1.05;;
75739;SDS011;64357;51.344;6.550;2023-08-06T15:19:07;6.38;;;2.03;;
75739;SDS011;64357;51.344;6.550;2023-08-06T15:21:32;4.27;;;1.70;;
75739;SDS011;64357;51.344;6.550;2023-08-06T15:23:58;7.35;;;2.05;;
75739;SDS011;64357;51.344;6.550;2023-08-06T15:26:24;3.72;;;1.50;;